In Rescue
 
Open Full Screen Window  High Contrast Mode
July 25, 2021 7:47 AM EDT
Weather Information
Wind Direction
  ---
Wind Speed
  00 kt (0 mph)
Wind Gust
  00 kt (0 mph)
Altimeter
29.89 in
Visibility
10 SM
Temperature
16° C
61° F
Dewpoint
16° C
61° F
Humidity
100%
Sky Condition
Clear
VFR

METAR KFKS 251147Z AUTO 00000KT 10SM CLR 16/16 A2989 RMK AO2 T01640158

FAA Disclaimer: The data displayed is for advisory purposes only and is not to be used for flight planning or operations.